Webcam LFGB

En direct depuis les locaux de l'Aéro-Club du Haut-Rhin, observez la piste 20/02 comme si vous y étiez !

Rejoignez-nous

METAR 2019/06/26 23:00 LFSB 262300Z AUTO VRB01KT CAVOK 22/21 Q1022 NOSIG
TAF 2019/06/26 18:21 TAF LFSB 261700Z 2618/2718 VRB03KT CAVOK BECMG 2711/2713 36010KT